Aérodrome :
LOGIN :

S'inscrire | Disclaimer

   EN    FR    IT 

 










Légende :    VFR   VFR Marginal   IFR   IFR Intensif   IFR Très Intensif
Visi : 
Plafond : 
>= 8 km
>= 3000ft
5 à 8 km
1000 à 3000 ft
1500m à 5 km
500 à 1000 ft
800 à 1500m
200 à 500 ft
< 800m
< 200 ft
Symboles :   Orages  Brouillard  Fortes neiges  Fortes précipitations  Vent > 20 kt
SIGMETs :   Divers  Orages  Givrage  Turbulence  Onde Orograph.  Cendres Volcan.







- Altitude de l'aérodrome : 427 ft
- Code IATA : CIA


LIRA - Roma Ciampino

DERNIER METAR :
  • 161950Z 12004KT CAVOK 19/15 Q1018

METARs EXPIRÉS :
  • 161920Z 14003KT CAVOK 19/15 Q1018
  • 161850Z 12004KT CAVOK 19/15 Q1017
  • 161820Z 13004KT 9999 FEW065 20/15 Q1017
  • 161750Z 14004KT 9999 SCT065 20/15 Q1017
  • 161720Z 10003KT 070V140 9999 SCT065 21/15 Q1017

TAF TAF LIRA
Valide du 16 à 18h jusqu'au 17 à 18h UTC


161700Z 1618/1718 VRB05KT 9999 SCT040
BECMG 1707/1709 15010KT
TEMPO 1712/1718 RA
Pas de NOTAMs connus pour ce terrain.
2 SIGMETs publiés pour la FIR Roma (LIRR) :
 
Orages noyés dans la masse
LIRR SIGMET 2 VALID 162000/162200 LIIB
LIRR ROMA FIR EMBD TS OBS WI N4126 E01204 - N3840 E00913 - N3723 E01143 - N3706 E01158 - N3817 E01224 - N3843 E01440 - N4126 E01204 TOP FL390 STNR NC=
Orages noyés dans la masse
LIRR SIGMET 1 VALID 161740/162000 LIIB
LIRR ROMA FIR EMBD TS OBS WI N4012 E00953 - N3746 E01213 - N3933 E01452 - N4125 E01219 - N4012 E00953 TOP FL390 STNR NC=



MET'MAP, la Météo Aéronautique d'un coup d'oeil ! - Copyright ORBIFLY Décembre 2007 - Disclaimer

ORBIFLY MET'MAP TEAM :

Programmation & Développement : Alexandra Zaïnal
Conception & Développement : Baudouin d'Aumeries
Co-Programmation & Développement : Marc-Olivier Méhu
Soutien technique & logistique : Manuel Goepfert

Contact : metmap@orbifly.com




SOURCES & CREDITS :

   NOAA